Time;durP1;ratioP1;P1;durP2;ratioP2;P2;SDS_P1;SDS_P2;PMS_P1;PMS_P2;Temp;Humidity;BMP_temperature;BMP_pressure;BME280_temperature;BME280_humidity;BME280_pressure;Samples;Min_cycle;Max_cycle;Signal;HPM_P1;HPM_P2
2023/06/14 00:02:19;;;;;;;3.40;3.10;;;17.90;78.00;;;;;;5071340;28;20551;-77
2023/06/14 00:04:48;;;;;;;3.27;3.00;;;17.80;78.20;;;;;;5067981;28;20520;-77
2023/06/14 00:07:16;;;;;;;2.60;2.40;;;17.80;78.80;;;;;;5050500;28;20467;-77
2023/06/14 00:09:44;;;;;;;2.80;2.60;;;17.70;79.10;;;;;;5061985;28;20554;-77
2023/06/14 00:12:11;;;;;;;3.63;2.97;;;17.70;79.30;;;;;;5059692;28;20481;-77
2023/06/14 00:14:38;;;;;;;3.00;2.80;;;17.60;79.70;;;;;;5066266;28;20524;-78
2023/06/14 00:17:07;;;;;;;3.50;2.90;;;17.50;80.30;;;;;;5068608;28;20466;-77
2023/06/14 00:19:35;;;;;;;4.17;2.60;;;17.50;80.70;;;;;;5075459;28;20469;-78
2023/06/14 00:22:03;;;;;;;4.73;3.30;;;17.40;80.80;;;;;;5064992;28;20474;-77
2023/06/14 00:24:31;;;;;;;3.47;2.60;;;17.40;81.50;;;;;;5075361;28;20466;-75
2023/06/14 00:26:58;;;;;;;3.50;2.80;;;17.30;81.70;;;;;;5074907;28;20470;-76
2023/06/14 00:29:25;;;;;;;3.90;3.23;;;17.20;82.20;;;;;;5071488;28;20473;-76
2023/06/14 00:31:52;;;;;;;3.77;3.47;;;17.20;82.50;;;;;;5064462;28;20538;-76
2023/06/14 00:34:19;;;;;;;6.43;2.83;;;17.20;83.00;;;;;;5054816;28;20870;-76
2023/06/14 00:36:46;;;;;;;4.23;3.17;;;17.20;83.40;;;;;;5055910;28;20474;-76
2023/06/14 00:39:13;;;;;;;3.07;2.83;;;17.20;83.60;;;;;;5054374;28;20470;-77
2023/06/14 00:41:42;;;;;;;3.37;3.07;;;17.10;84.00;;;;;;5054996;28;20976;-78
2023/06/14 00:44:09;;;;;;;5.23;3.10;;;17.10;84.40;;;;;;5054319;28;20479;-78
2023/06/14 00:46:36;;;;;;;4.00;3.70;;;17.10;84.80;;;;;;5055085;28;20869;-78
2023/06/14 00:49:04;;;;;;;3.33;3.03;;;17.10;85.00;;;;;;5054310;28;20558;-77
2023/06/14 00:51:31;;;;;;;8.43;3.60;;;17.10;85.20;;;;;;5055542;28;20532;-77
2023/06/14 00:53:59;;;;;;;3.47;3.20;;;17.10;85.60;;;;;;5055538;28;20463;-76
2023/06/14 00:56:27;;;;;;;4.40;3.13;;;17.00;85.80;;;;;;5053233;28;20525;-78
2023/06/14 00:58:58;;;;;;;4.00;3.70;;;17.10;86.20;;;;;;5055614;28;20475;-78
2023/06/14 01:01:28;;;;;;;3.57;3.23;;;17.10;86.60;;;;;;5054757;28;20836;-78
2023/06/14 01:03:56;;;;;;;3.67;3.37;;;17.00;86.90;;;;;;5055584;28;20555;-77
2023/06/14 01:06:32;;;;;;;4.20;3.60;;;17.10;87.20;;;;;;5054489;28;20467;-77
2023/06/14 01:09:10;;;;;;;4.47;3.73;;;17.10;87.60;;;;;;5055561;28;20475;-78
2023/06/14 01:11:49;;;;;;;5.00;4.50;;;17.10;87.80;;;;;;5054691;28;20921;-78
2023/06/14 01:14:18;;;;;;;4.63;4.27;;;17.10;88.80;;;;;;5053510;28;20787;-78
2023/06/14 01:16:49;;;;;;;6.07;3.80;;;17.10;88.40;;;;;;5055186;28;20781;-78
2023/06/14 01:19:17;;;;;;;4.33;3.93;;;17.00;89.30;;;;;;5054224;28;20467;-78
2023/06/14 01:21:44;;;;;;;5.07;4.57;;;17.10;89.60;;;;;;5055150;28;20467;-77
2023/06/14 01:24:13;;;;;;;4.87;4.23;;;17.10;90.00;;;;;;5055079;28;21011;-77
2023/06/14 01:26:45;;;;;;;3.50;3.30;;;17.10;90.20;;;;;;5054541;28;20796;-77
2023/06/14 01:29:16;;;;;;;5.27;4.77;;;17.10;90.30;;;;;;5051480;28;20945;-77
2023/06/14 01:31:46;;;;;;;8.77;4.77;;;17.10;90.40;;;;;;5054514;28;20534;-77
2023/06/14 01:34:13;;;;;;;4.97;4.30;;;17.10;90.60;;;;;;5055367;28;20859;-77
2023/06/14 01:36:44;;;;;;;5.80;4.13;;;17.10;90.60;;;;;;5054881;28;21243;-78
2023/06/14 01:39:15;;;;;;;3.97;3.70;;;17.10;90.70;;;;;;5055617;28;20976;-78
2023/06/14 01:41:43;;;;;;;3.80;3.50;;;17.10;90.80;;;;;;5056434;28;20458;-78
2023/06/14 01:44:12;;;;;;;4.07;3.67;;;17.10;90.80;;;;;;5055143;28;20459;-78
2023/06/14 01:46:40;;;;;;;7.67;4.20;;;17.10;90.80;;;;;;5052582;28;20475;-78
2023/06/14 01:49:07;;;;;;;4.30;4.00;;;17.10;90.80;;;;;;5055421;28;21000;-78
2023/06/14 01:51:35;;;;;;;5.00;4.27;;;17.10;90.80;;;;;;5054081;28;20471;-78
2023/06/14 01:54:08;;;;;;;5.30;3.77;;;17.20;90.90;;;;;;5054981;28;20816;-77
2023/06/14 01:56:37;;;;;;;4.23;3.87;;;17.10;90.80;;;;;;5055095;28;20554;-76
2023/06/14 01:59:04;;;;;;;4.00;3.70;;;17.10;90.80;;;;;;5054845;28;20459;-76
2023/06/14 02:01:34;;;;;;;4.17;3.57;;;17.10;90.90;;;;;;5054320;28;20606;-77
2023/06/14 02:04:02;;;;;;;4.20;3.80;;;17.10;90.90;;;;;;5055107;28;20463;-77
2023/06/14 02:06:34;;;;;;;4.90;4.40;;;17.10;90.90;;;;;;5053627;28;20598;-78
2023/06/14 02:09:03;;;;;;;5.07;4.37;;;17.10;91.10;;;;;;5055378;28;20471;-78
2023/06/14 02:11:30;;;;;;;6.23;4.27;;;17.10;91.10;;;;;;5060339;28;20550;-78
2023/06/14 02:13:59;;;;;;;4.93;4.50;;;17.00;91.10;;;;;;5070402;28;20494;-77
2023/06/14 02:16:29;;;;;;;4.73;4.23;;;17.00;91.30;;;;;;5069329;28;20471;-77
2023/06/14 02:18:56;;;;;;;4.13;3.73;;;17.00;91.50;;;;;;5068368;28;20471;-77
2023/06/14 02:21:24;;;;;;;4.00;3.70;;;16.90;91.60;;;;;;5070651;28;20546;-78
2023/06/14 02:23:52;;;;;;;3.67;3.37;;;16.90;91.90;;;;;;5072990;28;20467;-78
2023/06/14 02:26:19;;;;;;;5.97;4.07;;;16.90;92.00;;;;;;5071899;28;20471;-79
2023/06/14 02:28:46;;;;;;;4.60;4.20;;;16.90;92.20;;;;;;5072114;28;20474;-78
2023/06/14 02:31:14;;;;;;;4.40;4.00;;;16.80;92.30;;;;;;5071781;28;20447;-76
2023/06/14 02:33:41;;;;;;;4.37;3.97;;;16.80;92.40;;;;;;5070830;28;20467;-77
2023/06/14 02:36:08;;;;;;;4.87;4.07;;;16.80;92.50;;;;;;5066070;28;20475;-77
2023/06/14 02:38:35;;;;;;;7.03;4.70;;;16.80;92.60;;;;;;5062351;28;20467;-78
2023/06/14 02:41:05;;;;;;;5.30;4.80;;;16.80;92.80;;;;;;5063513;28;20529;-78
2023/06/14 02:43:32;;;;;;;5.80;4.20;;;16.80;93.10;;;;;;5061965;28;20499;-78
2023/06/14 02:46:02;;;;;;;5.40;4.90;;;16.70;93.20;;;;;;5062113;28;20467;-78
2023/06/14 02:48:31;;;;;;;3.97;3.67;;;16.70;93.40;;;;;;5061009;28;20510;-77
2023/06/14 02:50:58;;;;;;;4.80;4.47;;;16.70;93.70;;;;;;5066892;28;20461;-78
2023/06/14 02:53:26;;;;;;;4.63;4.23;;;16.60;93.80;;;;;;5068091;28;20506;-78
2023/06/14 02:55:55;;;;;;;5.63;5.13;;;16.60;94.00;;;;;;5068643;28;20471;-77
2023/06/14 02:58:24;;;;;;;5.40;4.50;;;16.60;94.20;;;;;;5066069;28;20535;-76
2023/06/14 03:00:52;;;;;;;4.67;4.23;;;16.60;94.30;;;;;;5070664;28;20471;-76
2023/06/14 03:03:21;;;;;;;5.30;4.80;;;16.60;94.50;;;;;;5070642;28;20467;-76
2023/06/14 03:05:51;;;;;;;4.37;4.00;;;16.60;94.70;;;;;;5070063;28;20478;-76
2023/06/14 03:08:19;;;;;;;6.50;5.60;;;16.50;94.90;;;;;;5070574;28;20471;-77
2023/06/14 03:10:47;;;;;;;5.80;5.30;;;16.50;95.10;;;;;;5069479;28;20539;-76
2023/06/14 03:13:17;;;;;;;5.53;5.03;;;16.50;95.30;;;;;;5069436;28;20493;-76
2023/06/14 03:15:44;;;;;;;4.73;4.13;;;16.50;95.50;;;;;;5067248;28;20478;-78
2023/06/14 03:18:12;;;;;;;5.53;5.00;;;16.50;95.70;;;;;;5059077;28;20961;-78
2023/06/14 03:20:40;;;;;;;4.93;4.43;;;16.40;95.80;;;;;;5058254;28;20463;-78
2023/06/14 03:23:09;;;;;;;5.50;4.80;;;16.40;96.20;;;;;;5048593;28;20532;-78
2023/06/14 03:25:38;;;;;;;5.10;4.60;;;16.40;96.80;;;;;;5057110;28;20471;-76
2023/06/14 03:28:05;;;;;;;5.33;4.70;;;16.40;96.60;;;;;;5057342;28;20470;-77
2023/06/14 03:30:32;;;;;;;4.70;4.30;;;16.40;96.70;;;;;;5056861;28;20790;-76
2023/06/14 03:33:00;;;;;;;6.97;5.20;;;16.40;96.80;;;;;;5055121;28;20474;-76
2023/06/14 03:35:28;;;;;;;6.13;5.53;;;16.40;97.10;;;;;;5056451;28;20470;-75
2023/06/14 03:37:55;;;;;;;8.20;4.70;;;16.40;97.30;;;;;;5056524;28;20467;-77
2023/06/14 03:40:26;;;;;;;5.40;4.90;;;16.40;97.40;;;;;;5057051;28;20463;-77
2023/06/14 03:42:54;;;;;;;5.90;4.70;;;16.40;97.50;;;;;;5054173;28;20498;-77
2023/06/14 03:45:21;;;;;;;5.37;4.87;;;16.50;97.60;;;;;;5055157;28;20498;-77
2023/06/14 03:47:50;;;;;;;5.63;5.13;;;16.50;97.80;;;;;;5054068;28;20478;-76
2023/06/14 03:50:19;;;;;;;6.30;5.70;;;16.50;98.00;;;;;;5054386;28;20466;-77
2023/06/14 03:52:50;;;;;;;6.30;5.80;;;16.50;98.20;;;;;;5054026;28;20837;-76
2023/06/14 03:55:17;;;;;;;5.90;5.40;;;16.50;98.40;;;;;;5058353;28;20463;-77
2023/06/14 03:57:46;;;;;;;6.30;5.70;;;16.50;98.40;;;;;;5058173;28;20467;-77
2023/06/14 04:00:15;;;;;;;6.70;5.00;;;16.50;98.60;;;;;;5059153;28;20462;-77
2023/06/14 04:02:43;;;;;;;6.77;6.10;;;16.50;98.70;;;;;;5057130;28;20567;-76
2023/06/14 04:05:11;;;;;;;6.83;6.23;;;16.60;98.90;;;;;;5057829;28;20986;-77
2023/06/14 04:07:44;;;;;;;6.47;5.83;;;16.60;98.90;;;;;;5058216;28;20473;-78
2023/06/14 04:10:13;;;;;;;10.50;6.80;;;16.60;99.00;;;;;;5059144;28;20455;-78
2023/06/14 04:12:40;;;;;;;7.07;6.37;;;16.70;99.00;;;;;;5059195;28;20483;-77
2023/06/14 04:15:11;;;;;;;6.10;5.50;;;16.70;99.00;;;;;;5058149;28;20529;-76
2023/06/14 04:17:39;;;;;;;5.73;5.20;;;16.80;99.20;;;;;;5059087;28;20470;-76
2023/06/14 04:20:09;;;;;;;9.20;5.67;;;16.80;99.20;;;;;;5058451;28;20952;-77
2023/06/14 04:22:36;;;;;;;6.17;5.70;;;16.90;99.20;;;;;;5058171;28;20477;-77
2023/06/14 04:25:06;;;;;;;6.50;5.90;;;16.90;99.20;;;;;;5058086;28;20471;-76
2023/06/14 04:27:36;;;;;;;6.60;6.10;;;17.00;99.30;;;;;;5058068;28;20957;-77
2023/06/14 04:30:05;;;;;;;5.93;5.43;;;17.00;99.30;;;;;;5058381;28;20468;-76
2023/06/14 04:32:38;;;;;;;7.00;6.50;;;17.00;99.30;;;;;;5058115;28;20550;-77
2023/06/14 04:35:07;;;;;;;5.27;4.87;;;17.10;99.30;;;;;;5058522;28;20471;-76
2023/06/14 04:37:34;;;;;;;5.60;5.10;;;17.10;99.20;;;;;;5057016;28;20478;-76
2023/06/14 04:40:04;;;;;;;11.10;6.47;;;17.20;99.20;;;;;;5057927;28;20898;-76
2023/06/14 04:42:32;;;;;;;6.20;5.60;;;17.20;99.20;;;;;;5056668;28;20536;-77
2023/06/14 04:44:59;;;;;;;6.00;5.60;;;17.30;99.30;;;;;;5056773;28;20501;-77
2023/06/14 04:47:29;;;;;;;6.73;6.03;;;17.30;99.40;;;;;;5056276;28;20778;-77
2023/06/14 04:50:00;;;;;;;11.57;6.90;;;17.40;99.30;;;;;;5057262;28;20467;-76
2023/06/14 04:52:29;;;;;;;7.50;6.80;;;17.40;99.30;;;;;;5056396;28;20797;-77
2023/06/14 04:54:56;;;;;;;7.83;6.57;;;17.40;99.40;;;;;;5056892;28;20524;-77
2023/06/14 04:57:25;;;;;;;7.03;6.30;;;17.50;99.40;;;;;;5045881;28;20541;-76
2023/06/14 04:59:54;;;;;;;5.67;5.17;;;17.50;99.30;;;;;;5055997;28;20818;-77
2023/06/14 05:02:22;;;;;;;5.60;5.20;;;17.60;99.30;;;;;;5055971;28;20995;-77
2023/06/14 05:04:49;;;;;;;6.47;5.87;;;17.70;99.30;;;;;;5055879;28;20513;-76
2023/06/14 05:07:23;;;;;;;9.13;6.60;;;17.70;99.20;;;;;;5056974;28;20542;-77
2023/06/14 05:09:50;;;;;;;6.13;5.73;;;17.80;99.10;;;;;;5045309;28;21034;-76
2023/06/14 05:12:18;;;;;;;6.97;5.97;;;17.80;98.90;;;;;;5056480;28;20467;-77
2023/06/14 05:15:10;;;;;;;6.50;5.57;;;17.90;98.90;;;;;;5056364;28;20805;-77
2023/06/14 05:17:40;;;;;;;6.20;5.60;;;17.90;98.80;;;;;;5056074;28;20542;-76
2023/06/14 05:20:09;;;;;;;7.40;6.70;;;18.00;98.70;;;;;;5056131;28;21035;-76
2023/06/14 05:22:38;;;;;;;7.67;6.43;;;18.00;98.70;;;;;;5045123;28;20493;-76
2023/06/14 05:25:06;;;;;;;5.90;5.40;;;18.00;98.50;;;;;;5056296;28;20482;-76
2023/06/14 05:27:37;;;;;;;10.20;6.63;;;18.10;98.60;;;;;;5056766;28;20468;-76
2023/06/14 05:30:05;;;;;;;10.70;7.20;;;18.10;98.40;;;;;;5056779;28;20475;-76
2023/06/14 05:32:32;;;;;;;6.27;5.67;;;18.20;98.30;;;;;;5055720;28;20471;-76
2023/06/14 05:34:59;;;;;;;8.30;7.13;;;18.20;98.30;;;;;;5055085;28;20455;-76
2023/06/14 05:37:27;;;;;;;5.50;5.10;;;18.20;98.30;;;;;;5055722;28;20471;-75
2023/06/14 05:39:55;;;;;;;7.13;6.43;;;18.30;98.20;;;;;;5055205;28;20463;-76
2023/06/14 05:42:22;;;;;;;7.77;6.90;;;18.20;98.20;;;;;;5055308;28;20529;-77
2023/06/14 05:44:51;;;;;;;7.10;6.37;;;18.30;98.30;;;;;;5055038;28;20506;-77
2023/06/14 05:47:18;;;;;;;10.60;7.63;;;18.30;98.20;;;;;;5055405;28;20482;-76
2023/06/14 05:49:47;;;;;;;6.47;5.87;;;18.40;98.00;;;;;;5055610;28;20533;-78
2023/06/14 05:52:14;;;;;;;8.77;6.20;;;18.40;98.00;;;;;;5055429;28;20472;-76
2023/06/14 05:54:41;;;;;;;6.27;5.67;;;18.40;98.00;;;;;;5055196;28;20471;-75
2023/06/14 05:57:10;;;;;;;7.80;7.10;;;18.40;98.00;;;;;;5054753;28;20466;-77
2023/06/14 05:59:37;;;;;;;7.80;7.10;;;18.40;97.90;;;;;;5054766;28;20471;-77
2023/06/14 06:02:05;;;;;;;5.53;5.10;;;18.40;97.80;;;;;;5055002;28;20489;-77
2023/06/14 06:04:34;;;;;;;6.43;5.83;;;18.50;97.80;;;;;;5054832;28;20467;-77
2023/06/14 06:07:09;;;;;;;5.70;5.10;;;18.50;97.70;;;;;;5053545;28;20476;-76
2023/06/14 06:09:38;;;;;;;5.40;4.90;;;18.50;97.70;;;;;;5045576;28;20558;-76
2023/06/14 06:12:08;;;;;;;7.20;6.60;;;18.60;97.70;;;;;;5054807;28;20471;-78
2023/06/14 06:14:40;;;;;;;6.77;6.07;;;18.60;97.80;;;;;;5054395;28;20952;-77
2023/06/14 06:17:07;;;;;;;9.20;5.47;;;18.50;97.90;;;;;;5053618;28;20467;-77
2023/06/14 06:19:34;;;;;;;7.03;6.33;;;18.50;97.90;;;;;;5054364;28;20567;-78
2023/06/14 06:22:01;;;;;;;6.23;5.43;;;18.50;97.90;;;;;;5053936;28;20467;-78
2023/06/14 06:24:29;;;;;;;6.47;5.90;;;18.60;98.00;;;;;;5043539;28;20529;-78
2023/06/14 06:26:57;;;;;;;6.23;5.30;;;18.60;98.10;;;;;;5054554;28;20547;-78
2023/06/14 06:29:27;;;;;;;6.13;5.57;;;18.60;98.00;;;;;;5054046;28;20955;-78
2023/06/14 06:31:56;;;;;;;5.30;4.80;;;18.70;97.90;;;;;;5052612;28;20528;-77
2023/06/14 06:34:23;;;;;;;6.20;5.63;;;18.70;97.80;;;;;;5054471;28;20454;-79
2023/06/14 06:36:50;;;;;;;6.10;5.50;;;18.70;97.80;;;;;;5054063;28;20471;-77
2023/06/14 06:39:21;;;;;;;8.07;6.43;;;18.80;97.70;;;;;;5054912;28;20468;-79
2023/06/14 06:41:48;;;;;;;8.17;6.93;;;18.70;97.80;;;;;;5054557;28;20529;-78
2023/06/14 06:44:18;;;;;;;6.57;5.97;;;18.80;97.80;;;;;;5053531;28;20475;-78
2023/06/14 06:46:47;;;;;;;9.37;5.50;;;18.80;97.70;;;;;;5054046;28;20471;-76
2023/06/14 06:49:16;;;;;;;7.40;6.57;;;18.80;97.70;;;;;;5043241;28;20471;-76
2023/06/14 06:51:44;;;;;;;7.87;6.70;;;18.80;97.70;;;;;;5053125;28;20562;-76
2023/06/14 06:54:12;;;;;;;7.03;5.03;;;18.80;97.70;;;;;;5054652;28;20473;-77
2023/06/14 06:56:39;;;;;;;7.27;5.67;;;18.90;97.70;;;;;;5053972;28;20472;-78
2023/06/14 06:59:06;;;;;;;7.07;6.37;;;18.90;97.70;;;;;;5054508;28;20499;-77
2023/06/14 07:01:33;;;;;;;8.37;6.17;;;18.90;97.60;;;;;;5053623;28;20459;-78
2023/06/14 07:04:01;;;;;;;7.10;6.57;;;18.90;97.50;;;;;;5054251;28;20533;-78
2023/06/14 07:06:30;;;;;;;5.80;5.30;;;19.00;97.50;;;;;;5052773;28;20467;-79
2023/06/14 07:09:01;;;;;;;6.10;5.50;;;19.10;97.50;;;;;;5054391;28;20471;-79
2023/06/14 07:11:28;;;;;;;7.67;6.87;;;19.10;97.30;;;;;;5053771;28;20528;-78
2023/06/14 07:13:55;;;;;;;6.83;5.50;;;19.10;97.30;;;;;;5053946;28;20473;-76
2023/06/14 07:16:23;;;;;;;6.20;5.63;;;19.20;97.30;;;;;;5053594;28;20557;-78
2023/06/14 07:18:53;;;;;;;6.67;6.07;;;19.20;97.20;;;;;;5054140;28;20467;-78
2023/06/14 07:21:20;;;;;;;8.43;5.40;;;19.20;97.10;;;;;;5042455;28;20558;-78
2023/06/14 07:23:49;;;;;;;8.07;6.20;;;19.30;97.10;;;;;;5053506;28;20529;-78
2023/06/14 07:26:16;;;;;;;6.20;5.23;;;19.30;97.00;;;;;;5053514;28;20493;-79
2023/06/14 07:28:44;;;;;;;5.33;4.83;;;19.40;97.00;;;;;;5056628;28;20459;-77
2023/06/14 07:31:12;;;;;;;5.70;5.23;;;19.40;96.90;;;;;;5058273;28;20832;-77
2023/06/14 07:33:40;;;;;;;7.40;5.20;;;19.50;96.80;;;;;;5056960;28;20552;-78
2023/06/14 07:36:07;;;;;;;5.83;5.10;;;19.50;96.60;;;;;;5057785;28;20509;-77
2023/06/14 07:38:35;;;;;;;6.20;5.60;;;19.50;96.50;;;;;;5057304;28;20477;-77
2023/06/14 07:41:04;;;;;;;5.30;4.80;;;19.60;96.50;;;;;;5057663;28;20938;-77
2023/06/14 07:43:31;;;;;;;6.30;5.80;;;19.70;96.50;;;;;;5057290;28;20486;-78
2023/06/14 07:45:59;;;;;;;7.97;5.80;;;19.80;96.50;;;;;;5057957;28;20532;-76
2023/06/14 07:48:28;;;;;;;6.57;5.70;;;19.90;96.30;;;;;;5056941;28;20533;-77
2023/06/14 07:50:55;;;;;;;5.80;5.27;;;20.20;96.10;;;;;;5057334;28;20479;-76
2023/06/14 07:53:23;;;;;;;8.27;5.67;;;20.30;95.60;;;;;;5057172;28;20467;-77
2023/06/14 07:55:50;;;;;;;7.13;5.00;;;20.50;95.30;;;;;;5058471;28;20477;-77
2023/06/14 07:58:20;;;;;;;6.47;5.70;;;20.70;94.90;;;;;;5055963;28;20470;-77
2023/06/14 08:00:51;;;;;;;7.10;6.03;;;20.90;94.60;;;;;;5058276;28;20470;-78
2023/06/14 08:03:19;;;;;;;6.80;5.90;;;21.00;94.10;;;;;;5056188;28;20550;-77
2023/06/14 08:05:46;;;;;;;5.60;4.67;;;21.10;93.80;;;;;;5055895;28;20459;-79
2023/06/14 08:08:13;;;;;;;6.33;4.53;;;21.20;93.40;;;;;;5056905;28;20487;-76
2023/06/14 08:10:40;;;;;;;5.53;5.03;;;21.40;93.20;;;;;;5045073;28;20530;-77
2023/06/14 08:13:09;;;;;;;5.37;4.87;;;21.60;92.90;;;;;;5056796;28;20520;-76
2023/06/14 08:15:37;;;;;;;5.20;4.80;;;21.80;92.50;;;;;;5055405;28;20475;-78
2023/06/14 08:18:04;;;;;;;5.57;4.60;;;21.90;91.60;;;;;;5057126;28;20471;-77
2023/06/14 08:20:31;;;;;;;5.63;5.23;;;22.10;91.50;;;;;;5055538;28;20474;-77
2023/06/14 08:22:59;;;;;;;5.40;4.90;;;22.30;91.10;;;;;;5056963;28;20474;-77
2023/06/14 08:25:26;;;;;;;6.30;5.30;;;22.40;90.70;;;;;;5056693;28;20557;-76
2023/06/14 08:27:53;;;;;;;4.70;4.23;;;22.50;90.10;;;;;;5055979;28;20463;-77
2023/06/14 08:30:20;;;;;;;5.30;4.63;;;22.50;89.90;;;;;;5056864;28;20558;-76
2023/06/14 08:32:49;;;;;;;6.60;4.60;;;22.60;89.80;;;;;;5047164;28;20482;-75
2023/06/14 08:35:18;;;;;;;8.03;4.97;;;22.60;89.40;;;;;;5056445;28;20567;-77
2023/06/14 08:37:45;;;;;;;4.67;4.17;;;22.70;89.30;;;;;;5056233;28;20977;-77
2023/06/14 08:40:21;;;;;;;6.60;4.57;;;22.90;88.40;;;;;;5055960;28;20501;-76
2023/06/14 08:42:53;;;;;;;9.40;4.47;;;23.00;86.70;;;;;;5054986;28;20470;-76
2023/06/14 08:45:22;;;;;;;8.67;5.50;;;23.10;85.80;;;;;;5056100;28;20463;-79
2023/06/14 08:47:59;;;;;;;5.07;4.63;;;23.10;85.60;;;;;;5052702;28;20529;-76
2023/06/14 08:50:29;;;;;;;5.87;5.37;;;23.20;85.20;;;;;;5056400;28;20502;-76
2023/06/14 08:53:00;;;;;;;6.10;4.70;;;23.20;85.00;;;;;;5044711;28;20467;-77
2023/06/14 08:55:29;;;;;;;5.23;4.10;;;23.10;84.20;;;;;;5055766;28;20817;-77
2023/06/14 08:57:58;;;;;;;7.83;4.77;;;23.10;84.20;;;;;;5055471;28;20478;-76
2023/06/14 09:00:26;;;;;;;5.47;4.27;;;23.10;83.90;;;;;;5055408;28;20471;-76
2023/06/14 09:02:57;;;;;;;4.60;4.20;;;23.10;83.50;;;;;;5055338;28;20478;-77
2023/06/14 09:05:28;;;;;;;4.97;3.80;;;23.10;82.60;;;;;;5056003;28;20563;-77
2023/06/14 09:07:56;;;;;;;8.77;3.33;;;22.90;80.90;;;;;;5054695;28;20468;-76
2023/06/14 09:10:25;;;;;;;5.97;3.80;;;22.90;80.90;;;;;;5055835;28;20949;-77
2023/06/14 09:12:52;;;;;;;3.50;3.20;;;22.80;81.30;;;;;;5055278;28;20475;-77
2023/06/14 09:15:20;;;;;;;5.97;4.47;;;22.80;81.50;;;;;;5055345;28;20860;-78
2023/06/14 09:17:47;;;;;;;14.17;5.00;;;22.80;81.40;;;;;;5055419;28;20857;-78
2023/06/14 09:20:18;;;;;;;8.50;5.13;;;22.80;80.60;;;;;;5054794;28;20520;-78
2023/06/14 09:22:45;;;;;;;8.17;4.20;;;22.80;80.50;;;;;;5054241;28;20786;-77
2023/06/14 09:25:15;;;;;;;4.50;4.17;;;22.80;80.10;;;;;;5055618;28;20486;-76
2023/06/14 09:27:42;;;;;;;5.73;5.23;;;22.80;80.70;;;;;;5056291;28;20562;-77
2023/06/14 09:30:15;;;;;;;5.47;4.40;;;22.80;81.20;;;;;;5055617;28;20451;-77
2023/06/14 09:32:43;;;;;;;6.10;4.80;;;22.80;81.50;;;;;;5055462;28;20477;-76
2023/06/14 09:35:11;;;;;;;4.33;3.90;;;22.80;82.70;;;;;;5055005;28;20478;-76
2023/06/14 09:37:40;;;;;;;4.80;4.40;;;22.90;81.70;;;;;;5055006;28;20976;-78
2023/06/14 09:40:09;;;;;;;10.50;5.40;;;22.90;81.70;;;;;;5055353;28;20544;-76
2023/06/14 09:42:41;;;;;;;5.13;4.30;;;22.80;81.90;;;;;;5055241;28;20534;-76
2023/06/14 09:45:11;;;;;;;5.80;4.40;;;22.80;80.90;;;;;;5054566;28;20463;-78
2023/06/14 09:47:39;;;;;;;4.80;4.27;;;22.80;80.60;;;;;;5046085;28;20467;-77
2023/06/14 09:50:09;;;;;;;6.97;4.47;;;22.90;80.20;;;;;;5053892;28;20479;-78
2023/06/14 09:52:36;;;;;;;4.47;4.07;;;22.90;80.10;;;;;;5055433;28;20528;-77
2023/06/14 09:55:13;;;;;;;6.20;4.50;;;22.90;79.90;;;;;;5054109;28;20499;-77
2023/06/14 09:57:51;;;;;;;5.53;4.37;;;22.90;79.80;;;;;;5055363;28;20479;-77
2023/06/14 10:00:20;;;;;;;7.40;4.70;;;23.00;79.70;;;;;;5054933;28;20458;-77
2023/06/14 10:02:56;;;;;;;6.67;4.60;;;22.80;79.70;;;;;;5055210;28;20532;-76
2023/06/14 10:05:24;;;;;;;5.90;4.60;;;22.90;80.10;;;;;;5054684;28;20482;-77
2023/06/14 10:07:56;;;;;;;4.83;4.37;;;22.90;79.90;;;;;;5054767;28;20469;-77
2023/06/14 10:10:25;;;;;;;5.00;3.90;;;23.00;79.80;;;;;;5053553;28;20937;-77
2023/06/14 10:12:52;;;;;;;5.20;4.70;;;22.90;79.70;;;;;;5055082;28;20471;-77
2023/06/14 10:15:25;;;;;;;8.83;5.10;;;22.90;79.50;;;;;;5054390;28;20475;-76
2023/06/14 10:17:57;;;;;;;6.67;4.60;;;22.80;79.80;;;;;;5054215;28;20482;-77
2023/06/14 10:20:29;;;;;;;5.63;4.20;;;22.80;79.80;;;;;;5024994;28;20572;-77
2023/06/14 10:23:03;;;;;;;7.50;4.40;;;22.70;79.60;;;;;;5053920;28;20498;-76
2023/06/14 10:25:32;;;;;;;5.03;4.30;;;22.60;79.40;;;;;;5053249;28;20463;-76
2023/06/14 10:28:18;;;;;;;8.37;4.80;;;22.60;79.40;;;;;;5053938;28;20483;-76
2023/06/14 10:31:05;;;;;;;6.43;4.47;;;22.60;80.60;;;;;;5054974;28;20569;-76
2023/06/14 10:33:35;;;;;;;7.50;5.00;;;22.60;79.60;;;;;;5052975;28;20478;-76
2023/06/14 10:36:12;;;;;;;5.50;5.00;;;22.70;79.80;;;;;;5054428;28;20474;-77
2023/06/14 10:38:39;;;;;;;6.63;4.90;;;22.80;79.90;;;;;;5053606;28;20536;-77
2023/06/14 10:41:08;;;;;;;5.07;4.63;;;22.80;79.80;;;;;;5053945;28;20525;-78
2023/06/14 10:43:35;;;;;;;5.33;4.83;;;22.90;79.80;;;;;;5054719;28;20478;-77
2023/06/14 10:46:22;;;;;;;5.00;4.53;;;22.90;79.40;;;;;;5054179;28;20819;-78
2023/06/14 10:48:50;;;;;;;7.23;5.00;;;22.90;79.20;;;;;;5052388;28;20537;-78
2023/06/14 10:51:20;;;;;;;4.73;4.33;;;23.00;78.90;;;;;;5053847;28;20977;-78
2023/06/14 10:53:49;;;;;;;4.33;3.93;;;23.00;78.70;;;;;;5053947;28;21026;-78
2023/06/14 10:56:30;;;;;;;7.83;4.40;;;23.10;77.80;;;;;;5053950;28;20491;-76
2023/06/14 10:59:01;;;;;;;6.97;4.33;;;23.20;77.10;;;;;;5053538;28;20948;-77
2023/06/14 11:01:38;;;;;;;5.93;4.80;;;23.30;77.10;;;;;;5053871;28;20817;-77
2023/06/14 11:04:09;;;;;;;6.37;4.90;;;23.30;76.70;;;;;;5053142;28;20584;-77
2023/06/14 11:07:01;;;;;;;6.23;4.60;;;23.30;76.50;;;;;;5053893;28;20482;-77
2023/06/14 11:10:02;;;;;;;5.80;4.17;;;23.30;75.10;;;;;;5053892;28;20490;-77
2023/06/14 11:12:35;;;;;;;4.97;4.50;;;23.40;75.50;;;;;;5052601;28;20529;-77
2023/06/14 11:15:02;;;;;;;5.43;3.70;;;23.30;73.80;;;;;;5054163;28;20495;-78
2023/06/14 11:17:30;;;;;;;7.33;4.33;;;23.40;74.10;;;;;;5053823;28;20551;-77
2023/06/14 11:20:09;;;;;;;9.37;5.03;;;23.30;74.20;;;;;;5054017;28;20490;-78
2023/06/14 11:22:41;;;;;;;5.50;4.37;;;23.30;74.10;;;;;;5053513;28;20467;-77
2023/06/14 11:25:10;;;;;;;5.00;3.90;;;23.30;73.60;;;;;;5054305;28;20525;-78
2023/06/14 11:27:39;;;;;;;6.93;4.90;;;23.30;73.00;;;;;;5044569;28;20471;-77
2023/06/14 11:30:09;;;;;;;6.40;4.27;;;23.30;72.60;;;;;;5054537;28;20540;-78
2023/06/14 11:32:36;;;;;;;5.60;4.50;;;23.30;71.90;;;;;;5054196;28;20467;-76
2023/06/14 11:35:04;;;;;;;5.17;4.77;;;23.30;72.00;;;;;;5058224;28;20546;-77
2023/06/14 11:37:33;;;;;;;6.90;4.60;;;23.30;70.60;;;;;;5052376;28;20562;-76
2023/06/14 11:40:00;;;;;;;4.67;4.00;;;23.40;71.10;;;;;;5053472;28;20465;-77
2023/06/14 11:42:28;;;;;;;5.73;4.30;;;23.50;71.40;;;;;;5053423;28;20470;-77
2023/06/14 11:44:57;;;;;;;4.63;4.03;;;23.60;71.30;;;;;;5052772;28;20494;-77
2023/06/14 11:47:26;;;;;;;8.80;4.47;;;23.70;70.40;;;;;;5052504;28;20475;-79
2023/06/14 11:49:53;;;;;;;6.20;4.67;;;23.90;70.10;;;;;;5053088;28;20455;-77
2023/06/14 11:52:20;;;;;;;8.77;4.30;;;24.00;69.30;;;;;;5053241;28;20863;-77
2023/06/14 11:54:50;;;;;;;8.53;4.00;;;24.00;68.60;;;;;;5053159;28;20464;-77
2023/06/14 11:57:19;;;;;;;5.57;4.60;;;24.00;68.10;;;;;;5053162;28;20561;-76
2023/06/14 11:59:50;;;;;;;5.10;3.70;;;24.00;67.90;;;;;;5053006;28;20792;-78
2023/06/14 12:02:19;;;;;;;4.00;3.60;;;24.00;67.30;;;;;;5053658;28;20502;-77
2023/06/14 12:04:54;;;;;;;9.70;3.60;;;24.00;67.60;;;;;;5052701;28;20483;-78
2023/06/14 12:07:24;;;;;;;4.20;3.90;;;24.10;67.10;;;;;;5053094;28;20474;-78
2023/06/14 12:10:10;;;;;;;4.80;3.70;;;24.10;65.70;;;;;;5052941;28;20475;-77
2023/06/14 12:12:39;;;;;;;5.13;4.10;;;24.10;65.30;;;;;;5052973;28;20493;-78
2023/06/14 12:15:07;;;;;;;4.77;3.40;;;24.20;64.10;;;;;;5055520;28;20459;-78
2023/06/14 12:17:42;;;;;;;7.60;3.73;;;24.10;63.60;;;;;;5056833;28;20459;-77
2023/06/14 12:20:13;;;;;;;4.80;4.33;;;24.10;62.80;;;;;;5055349;28;20466;-78
2023/06/14 12:22:41;;;;;;;9.10;3.90;;;24.10;62.60;;;;;;5056957;28;20471;-78
2023/06/14 12:25:09;;;;;;;6.10;4.50;;;24.00;62.10;;;;;;5056165;28;20471;-77
2023/06/14 12:27:41;;;;;;;6.93;3.90;;;24.00;62.00;;;;;;5056461;28;20471;-78
2023/06/14 12:30:12;;;;;;;4.20;3.80;;;24.00;61.90;;;;;;5055398;28;20770;-77
2023/06/14 12:33:40;;;;;;;4.70;4.30;;;24.10;62.30;;;;;;5056210;28;20489;-78
2023/06/14 12:36:11;;;;;;;5.10;4.40;;;24.20;61.90;;;;;;5047594;28;20470;-78
2023/06/14 12:38:38;;;;;;;3.73;3.40;;;24.20;61.60;;;;;;5055477;28;20471;-78
2023/06/14 12:41:06;;;;;;;7.53;4.47;;;24.30;61.30;;;;;;5056030;28;20459;-78
2023/06/14 12:43:33;;;;;;;5.43;3.90;;;24.30;59.90;;;;;;5055479;28;20467;-77
2023/06/14 12:46:00;;;;;;;5.87;4.17;;;24.30;59.60;;;;;;5055822;28;20463;-78
2023/06/14 12:48:29;;;;;;;4.10;3.80;;;24.20;59.40;;;;;;5055876;28;20470;-77
2023/06/14 12:50:56;;;;;;;7.57;4.30;;;24.30;59.60;;;;;;5055067;28;20905;-76
2023/06/14 12:53:26;;;;;;;7.67;3.63;;;24.30;58.40;;;;;;5055830;28;20953;-77
2023/06/14 12:55:53;;;;;;;4.73;3.77;;;24.40;58.20;;;;;;5055259;28;20531;-78
2023/06/14 12:58:20;;;;;;;5.73;3.87;;;24.50;57.90;;;;;;5056198;28;20800;-78